Time;durP1;ratioP1;P1;durP2;ratioP2;P2;SDS_P1;SDS_P2;PMS_P1;PMS_P2;Temp;Humidity;BMP_temperature;BMP_pressure;BME280_temperature;BME280_humidity;BME280_pressure;Samples;Min_cycle;Max_cycle;Signal;HPM_P1;HPM_P2
2023/12/31 00:00:32;;;;;;;3.42;1.52;;;;;;;;;;5050706;28;20028;-76
2023/12/31 00:02:58;;;;;;;6.55;1.85;;;;;;;;;;5054138;28;20024;-76
2023/12/31 00:05:24;;;;;;;6.00;2.40;;;;;;;;;;5050696;28;20033;-76
2023/12/31 00:07:50;;;;;;;2.90;2.05;;;;;;;;;;5051330;28;20025;-76
2023/12/31 00:10:17;;;;;;;4.20;2.03;;;;;;;;;;5055674;28;20033;-74
2023/12/31 00:12:43;;;;;;;4.00;2.42;;;;;;;;;;5059018;28;20059;-75
2023/12/31 00:15:09;;;;;;;6.95;2.38;;;;;;;;;;5062123;28;20036;-75
2023/12/31 00:17:35;;;;;;;6.30;2.00;;;;;;;;;;5055797;28;20024;-76
2023/12/31 00:20:02;;;;;;;3.58;1.92;;;;;;;;;;5055394;28;20033;-75
2023/12/31 00:22:28;;;;;;;4.15;2.28;;;;;;;;;;5058633;28;20057;-75
2023/12/31 00:24:55;;;;;;;3.72;2.15;;;;;;;;;;5058252;28;20068;-75
2023/12/31 00:27:21;;;;;;;2.58;1.33;;;;;;;;;;5053393;28;20029;-75
2023/12/31 00:29:48;;;;;;;2.42;1.52;;;;;;;;;;5050942;28;20024;-75
2023/12/31 00:32:14;;;;;;;2.40;1.42;;;;;;;;;;5051704;28;20024;-75
2023/12/31 00:34:40;;;;;;;3.35;2.13;;;;;;;;;;5050382;28;20086;-75
2023/12/31 00:37:06;;;;;;;7.30;1.35;;;;;;;;;;5048790;28;20029;-75
2023/12/31 00:39:32;;;;;;;3.40;1.20;;;;;;;;;;5064337;28;20405;-75
2023/12/31 00:41:58;;;;;;;4.20;1.52;;;;;;;;;;5058612;28;20040;-75
2023/12/31 00:44:24;;;;;;;2.47;2.03;;;;;;;;;;5054470;28;20029;-75
2023/12/31 00:46:50;;;;;;;3.72;1.50;;;;;;;;;;5059734;28;20082;-75
2023/12/31 00:49:16;;;;;;;3.00;1.58;;;;;;;;;;5064311;28;20040;-74
2023/12/31 00:51:42;;;;;;;4.30;1.63;;;;;;;;;;5053291;28;20025;-75
2023/12/31 00:54:08;;;;;;;2.05;1.55;;;;;;;;;;5056195;28;20457;-75
2023/12/31 00:56:34;;;;;;;3.90;1.85;;;;;;;;;;5065148;28;20021;-75
2023/12/31 00:59:02;;;;;;;8.43;1.33;;;;;;;;;;5050010;28;20484;-76
2023/12/31 01:01:28;;;;;;;6.65;1.75;;;;;;;;;;5053089;28;20041;-75
2023/12/31 01:03:53;;;;;;;9.88;1.80;;;;;;;;;;5056203;28;20038;-75
2023/12/31 01:06:19;;;;;;;2.38;1.30;;;;;;;;;;5059738;28;20497;-75
2023/12/31 01:08:45;;;;;;;5.35;1.90;;;;;;;;;;5062271;28;20025;-76
2023/12/31 01:11:11;;;;;;;2.15;1.40;;;;;;;;;;5058257;28;20033;-75
2023/12/31 01:13:37;;;;;;;1.42;1.33;;;;;;;;;;5052715;28;20395;-76
2023/12/31 01:16:04;;;;;;;2.15;1.40;;;;;;;;;;5056836;28;20597;-75
2023/12/31 01:18:30;;;;;;;5.15;1.45;;;;;;;;;;5054456;28;20033;-75
2023/12/31 01:20:56;;;;;;;0.88;0.88;;;;;;;;;;5049339;28;20458;-76
2023/12/31 01:23:22;;;;;;;4.40;1.52;;;;;;;;;;5049096;28;20029;-76
2023/12/31 01:25:48;;;;;;;1.60;1.50;;;;;;;;;;5051493;28;20052;-76
2023/12/31 01:28:14;;;;;;;7.53;1.88;;;;;;;;;;5051958;28;20431;-76
2023/12/31 01:30:40;;;;;;;2.92;1.70;;;;;;;;;;5049868;28;20111;-76
2023/12/31 01:33:06;;;;;;;4.88;1.80;;;;;;;;;;5056749;28;20032;-76
2023/12/31 01:35:32;;;;;;;1.70;1.30;;;;;;;;;;5061282;28;20063;-76
2023/12/31 01:37:58;;;;;;;3.20;2.25;;;;;;;;;;5060153;28;20028;-75
2023/12/31 01:40:23;;;;;;;4.05;1.52;;;;;;;;;;5060558;28;20021;-76
2023/12/31 01:42:49;;;;;;;6.55;1.40;;;;;;;;;;5064399;28;20035;-76
2023/12/31 01:45:15;;;;;;;3.85;1.40;;;;;;;;;;5061781;28;20049;-76
2023/12/31 01:47:42;;;;;;;1.35;1.25;;;;;;;;;;5064530;28;20032;-76
2023/12/31 01:50:08;;;;;;;2.45;1.33;;;;;;;;;;5061494;28;20070;-76
2023/12/31 01:52:34;;;;;;;2.97;1.40;;;;;;;;;;5051788;28;20030;-76
2023/12/31 01:55:06;;;;;;;5.75;1.48;;;;;;;;;;5050255;28;20502;-75
2023/12/31 01:57:33;;;;;;;3.47;1.83;;;;;;;;;;5054603;28;20082;-76
2023/12/31 02:00:00;;;;;;;2.03;1.55;;;;;;;;;;5048826;28;20033;-75
2023/12/31 02:02:26;;;;;;;5.07;1.17;;;;;;;;;;5061706;28;20037;-75
2023/12/31 02:04:56;;;;;;;4.13;1.33;;;;;;;;;;5052203;28;20021;-76
2023/12/31 02:07:22;;;;;;;3.20;1.65;;;;;;;;;;5065630;28;20033;-75
2023/12/31 02:09:48;;;;;;;3.00;1.10;;;;;;;;;;5059352;28;20031;-76
2023/12/31 02:12:14;;;;;;;2.85;1.48;;;;;;;;;;5055789;28;20491;-76
2023/12/31 02:14:40;;;;;;;1.83;1.08;;;;;;;;;;5072236;28;20029;-75
2023/12/31 02:17:06;;;;;;;2.80;1.20;;;;;;;;;;5053777;28;20024;-75
2023/12/31 02:19:32;;;;;;;3.08;1.55;;;;;;;;;;5052539;28;20395;-75
2023/12/31 02:21:58;;;;;;;1.92;1.17;;;;;;;;;;5047883;28;20082;-76
2023/12/31 02:24:28;;;;;;;2.35;1.48;;;;;;;;;;5052275;28;20025;-76
2023/12/31 02:26:54;;;;;;;5.68;1.13;;;;;;;;;;5066484;28;20024;-75
2023/12/31 02:29:20;;;;;;;5.47;1.50;;;;;;;;;;5053874;28;20384;-76
2023/12/31 02:31:46;;;;;;;2.53;1.55;;;;;;;;;;5057134;28;20416;-76
2023/12/31 02:34:11;;;;;;;4.57;1.17;;;;;;;;;;5061569;28;20368;-76
2023/12/31 02:36:37;;;;;;;1.90;1.13;;;;;;;;;;5059200;28;20029;-76
2023/12/31 02:39:03;;;;;;;3.28;1.10;;;;;;;;;;5061760;28;20476;-75
2023/12/31 02:41:32;;;;;;;1.67;0.73;;;;;;;;;;5060285;28;20391;-76
2023/12/31 02:43:58;;;;;;;2.70;1.10;;;;;;;;;;5058733;28;20024;-75
2023/12/31 02:46:24;;;;;;;4.00;1.20;;;;;;;;;;5050155;28;20017;-75
2023/12/31 02:48:49;;;;;;;2.97;1.40;;;;;;;;;;5062186;28;20036;-75
2023/12/31 02:51:15;;;;;;;2.60;1.60;;;;;;;;;;5064129;28;20044;-75
2023/12/31 02:53:41;;;;;;;2.15;1.65;;;;;;;;;;5053422;28;20398;-75
2023/12/31 02:56:07;;;;;;;3.50;1.60;;;;;;;;;;5054987;28;20032;-76
2023/12/31 02:58:33;;;;;;;5.30;1.42;;;;;;;;;;5051518;28;20032;-76
2023/12/31 03:01:00;;;;;;;4.45;1.42;;;;;;;;;;5058313;28;20048;-75
2023/12/31 03:03:26;;;;;;;0.60;0.60;;;;;;;;;;5055645;28;21214;-76
2023/12/31 03:05:52;;;;;;;2.25;1.60;;;;;;;;;;5055970;28;20025;-75
2023/12/31 03:08:18;;;;;;;2.22;1.20;;;;;;;;;;5063701;28;20047;-75
2023/12/31 03:10:44;;;;;;;2.67;1.40;;;;;;;;;;5057906;28;20056;-75
2023/12/31 03:13:10;;;;;;;2.28;1.40;;;;;;;;;;5053938;28;20107;-75
2023/12/31 03:15:35;;;;;;;2.80;1.30;;;;;;;;;;5055363;28;20056;-75
2023/12/31 03:18:01;;;;;;;2.53;1.05;;;;;;;;;;5054800;28;20537;-75
2023/12/31 03:20:27;;;;;;;6.60;1.40;;;;;;;;;;5061100;28;20028;-75
2023/12/31 03:22:53;;;;;;;1.40;1.23;;;;;;;;;;5059833;28;20063;-75
2023/12/31 03:25:19;;;;;;;1.02;0.82;;;;;;;;;;5056482;28;20445;-75
2023/12/31 03:27:45;;;;;;;2.30;1.40;;;;;;;;;;5059191;28;20052;-74
2023/12/31 03:30:11;;;;;;;1.60;1.20;;;;;;;;;;5051728;28;20032;-75
2023/12/31 03:32:37;;;;;;;1.08;1.00;;;;;;;;;;5061123;28;20025;-75
2023/12/31 03:35:04;;;;;;;1.88;1.23;;;;;;;;;;5050238;28;20521;-75
2023/12/31 03:37:30;;;;;;;1.88;1.70;;;;;;;;;;5055657;28;20028;-75
2023/12/31 03:39:56;;;;;;;2.50;1.15;;;;;;;;;;5054294;28;20031;-75
2023/12/31 03:42:21;;;;;;;2.17;1.10;;;;;;;;;;5054583;28;20488;-75
2023/12/31 03:44:47;;;;;;;6.55;1.08;;;;;;;;;;5058659;28;20032;-75
2023/12/31 03:47:13;;;;;;;2.10;1.55;;;;;;;;;;5050910;28;20100;-75
2023/12/31 03:49:39;;;;;;;3.75;1.75;;;;;;;;;;5055529;28;20017;-75
2023/12/31 03:52:06;;;;;;;3.88;1.17;;;;;;;;;;5064456;28;20570;-75
2023/12/31 03:54:32;;;;;;;2.17;1.20;;;;;;;;;;5058973;28;20044;-75
2023/12/31 03:56:58;;;;;;;5.00;1.45;;;;;;;;;;5051692;28;20039;-75
2023/12/31 03:59:24;;;;;;;3.47;1.23;;;;;;;;;;5054540;28;20391;-75
2023/12/31 04:01:56;;;;;;;1.85;1.27;;;;;;;;;;5055109;28;20102;-75
2023/12/31 04:04:22;;;;;;;8.10;1.15;;;;;;;;;;5056723;28;20033;-76
2023/12/31 04:06:48;;;;;;;1.00;0.80;;;;;;;;;;5054232;28;20066;-76
2023/12/31 04:09:14;;;;;;;1.50;1.27;;;;;;;;;;5067430;28;20396;-75
2023/12/31 04:11:40;;;;;;;4.35;1.40;;;;;;;;;;5055718;28;20045;-75
2023/12/31 04:14:06;;;;;;;2.42;1.10;;;;;;;;;;5054557;28;20040;-75
2023/12/31 04:16:32;;;;;;;1.38;0.85;;;;;;;;;;5050670;28;20391;-75
2023/12/31 04:18:58;;;;;;;1.23;1.13;;;;;;;;;;5063766;28;20055;-75
2023/12/31 04:21:24;;;;;;;1.60;1.08;;;;;;;;;;5059011;28;20032;-75
2023/12/31 04:23:50;;;;;;;3.08;1.30;;;;;;;;;;5052890;28;20372;-75
2023/12/31 04:26:16;;;;;;;2.00;1.20;;;;;;;;;;5056605;28;20316;-75
2023/12/31 04:28:42;;;;;;;2.13;1.30;;;;;;;;;;5057452;28;20116;-75
2023/12/31 04:31:08;;;;;;;1.40;1.30;;;;;;;;;;5055306;28;20037;-75
2023/12/31 04:33:34;;;;;;;2.22;1.60;;;;;;;;;;5058832;28;20032;-75
2023/12/31 04:36:04;;;;;;;6.90;1.33;;;;;;;;;;5053710;28;20025;-75
2023/12/31 04:38:30;;;;;;;2.08;1.25;;;;;;;;;;5051443;28;20029;-75
2023/12/31 04:40:56;;;;;;;1.58;1.20;;;;;;;;;;5058935;28;20387;-76
2023/12/31 04:43:22;;;;;;;4.55;0.85;;;;;;;;;;5052408;28;20032;-75
2023/12/31 04:45:48;;;;;;;5.60;1.23;;;;;;;;;;5049767;28;20036;-76
2023/12/31 04:48:14;;;;;;;9.32;1.40;;;;;;;;;;5053808;28;20032;-75
2023/12/31 04:50:40;;;;;;;2.28;1.27;;;;;;;;;;5053057;28;20069;-75
2023/12/31 04:53:07;;;;;;;1.45;1.15;;;;;;;;;;5052025;28;20110;-75
2023/12/31 04:55:34;;;;;;;2.72;1.20;;;;;;;;;;5052048;28;20045;-75
2023/12/31 04:58:00;;;;;;;3.28;1.50;;;;;;;;;;5049522;28;20049;-75
2023/12/31 05:00:26;;;;;;;2.35;1.30;;;;;;;;;;5051330;28;20029;-75
2023/12/31 05:02:52;;;;;;;1.45;1.20;;;;;;;;;;5064833;28;20047;-75
2023/12/31 05:05:18;;;;;;;1.63;1.20;;;;;;;;;;5058474;28;20075;-75
2023/12/31 05:07:44;;;;;;;1.02;1.00;;;;;;;;;;5053196;28;20287;-75
2023/12/31 05:10:10;;;;;;;2.25;1.38;;;;;;;;;;5060271;28;20063;-75
2023/12/31 05:12:35;;;;;;;1.75;1.10;;;;;;;;;;5054226;28;20031;-75
2023/12/31 05:15:02;;;;;;;4.03;1.33;;;;;;;;;;5049516;28;20469;-75
2023/12/31 05:17:28;;;;;;;3.22;1.92;;;;;;;;;;5055044;28;20530;-75
2023/12/31 05:19:53;;;;;;;2.45;1.33;;;;;;;;;;5051283;28;20123;-76
2023/12/31 05:22:19;;;;;;;3.50;1.25;;;;;;;;;;5056898;28;20029;-75
2023/12/31 05:24:45;;;;;;;2.70;1.30;;;;;;;;;;5063892;28;20124;-75
2023/12/31 05:27:11;;;;;;;4.55;1.77;;;;;;;;;;5055903;28;20025;-75
2023/12/31 05:29:37;;;;;;;2.65;1.48;;;;;;;;;;5055437;28;20060;-75
2023/12/31 05:32:04;;;;;;;1.92;1.58;;;;;;;;;;5057068;28;20028;-75
2023/12/31 05:34:30;;;;;;;1.73;1.05;;;;;;;;;;5058226;28;20028;-75
2023/12/31 05:36:56;;;;;;;2.47;1.25;;;;;;;;;;5050228;28;20025;-75
2023/12/31 05:39:22;;;;;;;2.60;1.45;;;;;;;;;;5057454;28;20036;-75
2023/12/31 05:41:48;;;;;;;1.88;1.13;;;;;;;;;;5057180;28;20040;-75
2023/12/31 05:44:13;;;;;;;4.38;2.00;;;;;;;;;;5056593;28;20020;-75
2023/12/31 05:46:39;;;;;;;5.68;1.60;;;;;;;;;;5060846;28;20032;-75
2023/12/31 05:49:05;;;;;;;1.70;1.40;;;;;;;;;;5058314;28;20020;-75
2023/12/31 05:51:31;;;;;;;2.00;0.98;;;;;;;;;;5055928;28;20017;-75
2023/12/31 05:53:57;;;;;;;4.65;2.03;;;;;;;;;;5052551;28;20025;-75
2023/12/31 05:56:23;;;;;;;1.83;1.50;;;;;;;;;;5050641;28;20025;-75
2023/12/31 05:58:49;;;;;;;3.45;2.05;;;;;;;;;;5059292;28;20029;-75
2023/12/31 06:01:16;;;;;;;1.88;1.17;;;;;;;;;;5056158;28;20546;-75
2023/12/31 06:03:42;;;;;;;4.00;1.13;;;;;;;;;;5048946;28;20021;-75
2023/12/31 06:06:08;;;;;;;1.35;1.02;;;;;;;;;;5053217;28;20034;-75
2023/12/31 06:08:34;;;;;;;2.30;1.23;;;;;;;;;;5062083;28;20052;-76
2023/12/31 06:11:00;;;;;;;5.25;1.52;;;;;;;;;;5068507;28;20384;-75
2023/12/31 06:13:26;;;;;;;2.72;1.35;;;;;;;;;;5054273;28;20082;-75
2023/12/31 06:15:52;;;;;;;3.38;0.95;;;;;;;;;;5055825;28;20079;-75
2023/12/31 06:18:18;;;;;;;6.97;1.40;;;;;;;;;;5052815;28;20048;-75
2023/12/31 06:20:44;;;;;;;3.45;1.73;;;;;;;;;;5052027;28;20033;-75
2023/12/31 06:23:10;;;;;;;1.40;1.30;;;;;;;;;;5059345;28;20036;-75
2023/12/31 06:25:35;;;;;;;3.40;1.67;;;;;;;;;;5066901;28;20045;-75
2023/12/31 06:28:01;;;;;;;1.77;1.25;;;;;;;;;;5054004;28;20492;-75
2023/12/31 06:30:27;;;;;;;3.45;1.40;;;;;;;;;;5054215;28;20021;-75
2023/12/31 06:32:53;;;;;;;2.95;1.17;;;;;;;;;;5049221;28;20049;-75
2023/12/31 06:35:19;;;;;;;2.35;1.50;;;;;;;;;;5056693;28;20021;-75
2023/12/31 06:37:45;;;;;;;2.63;1.52;;;;;;;;;;5057742;28;20530;-75
2023/12/31 06:40:11;;;;;;;2.33;1.15;;;;;;;;;;5058125;28;20078;-75
2023/12/31 06:42:37;;;;;;;6.20;1.80;;;;;;;;;;5055171;28;20601;-75
2023/12/31 06:45:04;;;;;;;1.48;1.20;;;;;;;;;;5056350;28;20040;-75
2023/12/31 06:47:31;;;;;;;8.40;1.45;;;;;;;;;;5055034;28;20024;-75
2023/12/31 06:49:56;;;;;;;1.48;1.08;;;;;;;;;;5052297;28;20029;-75
2023/12/31 06:52:22;;;;;;;2.55;1.25;;;;;;;;;;5058479;28;20494;-75
2023/12/31 06:54:48;;;;;;;2.80;1.38;;;;;;;;;;5053814;28;20021;-75
2023/12/31 06:57:14;;;;;;;2.95;1.30;;;;;;;;;;5062330;28;20381;-75
2023/12/31 06:59:40;;;;;;;2.10;0.95;;;;;;;;;;5054721;28;20033;-75
2023/12/31 07:02:06;;;;;;;5.00;1.20;;;;;;;;;;5055856;28;20077;-75
2023/12/31 07:04:32;;;;;;;1.38;0.95;;;;;;;;;;5057000;28;20021;-75
2023/12/31 07:06:58;;;;;;;2.83;1.20;;;;;;;;;;5065700;28;20024;-75
2023/12/31 07:09:24;;;;;;;3.35;1.63;;;;;;;;;;5052741;28;20025;-76
2023/12/31 07:11:50;;;;;;;2.35;1.40;;;;;;;;;;5055546;28;20036;-76
2023/12/31 07:14:16;;;;;;;2.42;1.10;;;;;;;;;;5060584;28;20025;-76
2023/12/31 07:16:42;;;;;;;3.15;1.08;;;;;;;;;;5061042;28;20052;-76
2023/12/31 07:19:08;;;;;;;1.67;1.27;;;;;;;;;;5052364;28;20093;-76
2023/12/31 07:21:34;;;;;;;1.10;0.98;;;;;;;;;;5067820;28;20040;-76
2023/12/31 07:24:00;;;;;;;2.00;1.20;;;;;;;;;;5066114;28;20036;-76
2023/12/31 07:26:26;;;;;;;8.40;1.50;;;;;;;;;;5068592;28;20025;-76
2023/12/31 07:28:53;;;;;;;3.17;1.25;;;;;;;;;;5057563;28;20032;-74
2023/12/31 07:31:19;;;;;;;2.00;1.15;;;;;;;;;;5060256;28;20395;-75
2023/12/31 07:33:45;;;;;;;2.63;1.88;;;;;;;;;;5070244;28;20066;-75
2023/12/31 07:36:11;;;;;;;1.92;1.30;;;;;;;;;;5060648;28;20028;-76
2023/12/31 07:38:37;;;;;;;2.63;1.58;;;;;;;;;;5057383;28;20510;-75
2023/12/31 07:41:03;;;;;;;2.00;0.98;;;;;;;;;;5060108;28;20037;-76
2023/12/31 07:43:30;;;;;;;5.22;1.55;;;;;;;;;;5060773;28;20025;-76
2023/12/31 07:45:56;;;;;;;2.45;1.30;;;;;;;;;;5055712;28;20063;-75
2023/12/31 07:48:22;;;;;;;1.25;1.15;;;;;;;;;;5052327;28;20037;-75
2023/12/31 07:50:48;;;;;;;1.65;1.08;;;;;;;;;;5069165;28;20027;-75
2023/12/31 07:53:14;;;;;;;1.85;1.00;;;;;;;;;;5060098;28;20499;-75
2023/12/31 07:55:40;;;;;;;2.45;1.27;;;;;;;;;;5062384;28;20121;-75
2023/12/31 07:58:06;;;;;;;3.20;1.20;;;;;;;;;;5059576;28;20037;-77
2023/12/31 08:00:32;;;;;;;1.10;1.00;;;;;;;;;;5061730;28;20074;-75
2023/12/31 08:02:58;;;;;;;2.38;1.20;;;;;;;;;;5054224;28;20542;-75
2023/12/31 08:05:24;;;;;;;5.55;1.65;;;;;;;;;;5060904;28;20040;-75
2023/12/31 08:07:49;;;;;;;1.80;1.20;;;;;;;;;;5062491;28;20025;-75
2023/12/31 08:10:15;;;;;;;1.38;1.23;;;;;;;;;;5070669;28;20140;-75
2023/12/31 08:12:42;;;;;;;6.10;1.42;;;;;;;;;;5056979;28;20025;-75
2023/12/31 08:15:08;;;;;;;1.38;0.88;;;;;;;;;;5055009;28;20052;-75
2023/12/31 08:17:34;;;;;;;1.88;1.33;;;;;;;;;;5052721;28;20033;-75
2023/12/31 08:20:00;;;;;;;1.98;1.17;;;;;;;;;;5063490;28;20083;-76
2023/12/31 08:22:27;;;;;;;1.40;0.93;;;;;;;;;;5050405;28;20033;-74
2023/12/31 08:24:53;;;;;;;1.45;1.10;;;;;;;;;;5059619;28;20074;-75
2023/12/31 08:27:19;;;;;;;2.00;1.13;;;;;;;;;;5056548;28;20032;-76
2023/12/31 08:29:44;;;;;;;1.63;0.95;;;;;;;;;;5053479;28;20095;-75
2023/12/31 08:32:10;;;;;;;2.05;1.23;;;;;;;;;;5062592;28;20024;-75
2023/12/31 08:34:37;;;;;;;0.95;0.95;;;;;;;;;;5066734;28;20012;-76
2023/12/31 08:37:03;;;;;;;1.98;1.33;;;;;;;;;;5054352;28;20029;-76
2023/12/31 08:39:29;;;;;;;1.25;0.90;;;;;;;;;;5052941;28;20055;-76
2023/12/31 08:41:55;;;;;;;1.63;1.05;;;;;;;;;;5065854;28;20032;-76
2023/12/31 08:44:21;;;;;;;2.67;1.40;;;;;;;;;;5053897;28;20597;-76
2023/12/31 08:46:47;;;;;;;2.60;1.70;;;;;;;;;;5051277;28;20025;-75
2023/12/31 08:49:13;;;;;;;1.02;0.85;;;;;;;;;;5059528;28;20024;-75
2023/12/31 08:51:39;;;;;;;1.42;1.08;;;;;;;;;;5050868;28;20476;-75
2023/12/31 08:54:05;;;;;;;1.60;1.17;;;;;;;;;;5060336;28;20495;-85
2023/12/31 08:56:31;;;;;;;1.02;0.90;;;;;;;;;;5055440;28;20017;-81
2023/12/31 08:58:57;;;;;;;1.38;1.00;;;;;;;;;;5060796;28;20388;-80
2023/12/31 09:01:23;;;;;;;1.35;0.98;;;;;;;;;;5065583;28;20149;-80
2023/12/31 09:03:49;;;;;;;1.77;1.08;;;;;;;;;;5063121;28;20028;-80
2023/12/31 09:06:15;;;;;;;1.63;1.23;;;;;;;;;;5061568;28;20628;-80
2023/12/31 09:08:40;;;;;;;1.92;1.10;;;;;;;;;;5077340;28;20036;-80
2023/12/31 09:11:06;;;;;;;1.17;0.88;;;;;;;;;;5069249;28;20032;-81
2023/12/31 09:13:32;;;;;;;1.58;1.10;;;;;;;;;;5061323;28;20070;-78
2023/12/31 09:15:58;;;;;;;1.25;1.05;;;;;;;;;;5055739;28;20044;-86
2023/12/31 09:18:24;;;;;;;1.17;0.85;;;;;;;;;;5061534;28;20028;-78
2023/12/31 09:20:50;;;;;;;2.90;1.65;;;;;;;;;;5053474;28;20033;-76
2023/12/31 09:23:19;;;;;;;1.52;1.42;;;;;;;;;;5049854;28;20775;-82
2023/12/31 09:25:45;;;;;;;1.80;1.20;;;;;;;;;;5063455;28;20020;-78
2023/12/31 09:28:11;;;;;;;2.75;1.63;;;;;;;;;;5064826;28;20037;-78
2023/12/31 09:30:37;;;;;;;2.40;0.82;;;;;;;;;;5056291;28;20025;-82
2023/12/31 09:33:03;;;;;;;2.78;1.50;;;;;;;;;;5051738;28;20651;-80
2023/12/31 09:35:29;;;;;;;4.93;1.10;;;;;;;;;;5077990;28;20025;-85
2023/12/31 09:37:55;;;;;;;1.05;0.95;;;;;;;;;;5066488;28;20376;-82
2023/12/31 09:40:21;;;;;;;2.83;1.08;;;;;;;;;;5067976;28;20035;-82
2023/12/31 09:42:48;;;;;;;1.45;0.90;;;;;;;;;;5064073;28;20032;-82
2023/12/31 09:45:16;;;;;;;2.95;1.77;;;;;;;;;;5061968;28;20094;-82
2023/12/31 09:47:43;;;;;;;1.58;1.00;;;;;;;;;;5055266;28;20036;-82
2023/12/31 09:50:10;;;;;;;2.00;1.60;;;;;;;;;;5054230;28;20029;-81
2023/12/31 09:52:37;;;;;;;2.15;1.27;;;;;;;;;;5069715;28;20031;-81
2023/12/31 09:55:03;;;;;;;2.63;1.27;;;;;;;;;;5054479;28;20115;-80
2023/12/31 09:57:34;;;;;;;1.95;1.05;;;;;;;;;;5054753;28;20029;-80
2023/12/31 10:00:01;;;;;;;3.58;1.70;;;;;;;;;;5053690;28;20035;-80
2023/12/31 10:02:27;;;;;;;1.42;1.10;;;;;;;;;;5069195;28;20036;-81
2023/12/31 10:04:54;;;;;;;2.50;1.40;;;;;;;;;;5061616;28;20071;-81
2023/12/31 10:07:22;;;;;;;1.20;1.10;;;;;;;;;;5053386;28;20082;-80
2023/12/31 10:09:49;;;;;;;2.00;1.45;;;;;;;;;;5064361;28;20103;-80
2023/12/31 10:12:16;;;;;;;1.95;1.30;;;;;;;;;;5059219;28;20120;-80
2023/12/31 10:14:41;;;;;;;1.90;1.33;;;;;;;;;;5052508;28;20043;-80
2023/12/31 10:17:08;;;;;;;1.55;1.10;;;;;;;;;;5052980;28;20374;-79
2023/12/31 10:19:34;;;;;;;3.03;1.35;;;;;;;;;;5058151;28;20391;-78
2023/12/31 10:22:00;;;;;;;1.98;1.20;;;;;;;;;;5058422;28;20035;-79
2023/12/31 10:24:29;;;;;;;2.47;1.65;;;;;;;;;;5058292;28;20028;-84
2023/12/31 10:27:02;;;;;;;1.73;1.20;;;;;;;;;;5055880;28;20364;-76
2023/12/31 10:29:28;;;;;;;2.15;1.40;;;;;;;;;;5055501;28;20116;-76
2023/12/31 10:31:54;;;;;;;1.55;1.20;;;;;;;;;;5055394;28;20442;-80
2023/12/31 10:34:20;;;;;;;1.77;1.23;;;;;;;;;;5051604;28;20021;-80
2023/12/31 10:36:46;;;;;;;3.53;1.10;;;;;;;;;;5052426;28;20503;-81
2023/12/31 10:39:28;;;;;;;2.42;1.25;;;;;;;;;;5052075;28;20560;-80
2023/12/31 10:42:03;;;;;;;4.00;1.40;;;;;;;;;;5054654;28;20028;-79
2023/12/31 10:44:31;;;;;;;3.28;1.23;;;;;;;;;;5056717;28;20028;-77
2023/12/31 10:46:59;;;;;;;2.60;1.52;;;;;;;;;;5048137;28;20112;-78
2023/12/31 10:49:29;;;;;;;3.72;2.13;;;;;;;;;;5057980;28;20049;-78
2023/12/31 10:51:55;;;;;;;2.20;1.50;;;;;;;;;;5061395;28;20031;-76
2023/12/31 10:54:26;;;;;;;1.42;1.33;;;;;;;;;;5053300;28;20044;-76
2023/12/31 10:56:52;;;;;;;;;;;;;;;;;;5058540;28;20083;-80
2023/12/31 10:59:21;;;;;;;2.35;1.00;;;;;;;;;;5053607;28;19912;-80
2023/12/31 11:01:48;;;;;;;1.27;0.90;;;;;;;;;;5072216;28;20036;-80
2023/12/31 11:04:15;;;;;;;5.95;2.25;;;;;;;;;;5072976;28;20479;-80
2023/12/31 11:06:42;;;;;;;1.38;1.23;;;;;;;;;;5058526;28;20032;-80
2023/12/31 11:09:09;;;;;;;1.95;1.10;;;;;;;;;;5054848;28;20029;-80
2023/12/31 11:11:36;;;;;;;1.40;1.27;;;;;;;;;;5074217;28;20033;-80
2023/12/31 11:14:04;;;;;;;3.75;1.63;;;;;;;;;;5060795;28;20385;-80
2023/12/31 11:16:52;;;;;;;2.90;1.88;;;;;;;;;;5054178;28;20032;-80
2023/12/31 11:19:25;;;;;;;1.85;1.10;;;;;;;;;;5059284;28;20428;-80
2023/12/31 11:22:10;;;;;;;4.53;1.98;;;;;;;;;;5056014;28;20035;-80
2023/12/31 11:24:36;;;;;;;1.33;0.95;;;;;;;;;;5061137;28;20120;-80
2023/12/31 11:27:07;;;;;;;1.85;1.60;;;;;;;;;;5077452;28;20463;-81
2023/12/31 11:29:33;;;;;;;2.22;1.70;;;;;;;;;;5073443;28;20039;-80
2023/12/31 11:31:59;;;;;;;2.22;1.70;;;;;;;;;;5068931;28;20209;-79
2023/12/31 11:34:25;;;;;;;1.50;1.10;;;;;;;;;;5052750;28;20021;-79
2023/12/31 11:36:54;;;;;;;1.73;1.17;;;;;;;;;;5072847;28;20032;-80
2023/12/31 11:39:23;;;;;;;1.77;1.15;;;;;;;;;;5066542;28;20028;-79
2023/12/31 11:41:52;;;;;;;3.30;1.00;;;;;;;;;;5067363;28;20072;-80
2023/12/31 11:44:37;;;;;;;1.25;1.13;;;;;;;;;;5065546;28;20035;-79
2023/12/31 11:47:03;;;;;;;2.88;1.30;;;;;;;;;;5068934;28;20025;-79
2023/12/31 11:49:29;;;;;;;2.67;1.10;;;;;;;;;;5060931;28;20025;-80
2023/12/31 11:51:56;;;;;;;1.55;1.02;;;;;;;;;;5060512;28;20024;-79
2023/12/31 11:54:23;;;;;;;3.50;1.42;;;;;;;;;;5077895;28;20120;-79
2023/12/31 11:56:51;;;;;;;2.13;1.40;;;;;;;;;;5063446;28;20025;-79
2023/12/31 11:59:17;;;;;;;2.95;1.50;;;;;;;;;;5055761;28;20503;-79
2023/12/31 12:01:43;;;;;;;4.93;1.52;;;;;;;;;;5082052;28;20117;-79
2023/12/31 12:04:10;;;;;;;1.00;0.88;;;;;;;;;;5075449;28;20497;-79
2023/12/31 12:06:36;;;;;;;2.30;1.17;;;;;;;;;;5057235;28;20722;-80
2023/12/31 12:09:03;;;;;;;2.58;1.33;;;;;;;;;;5060107;28;20108;-80
2023/12/31 12:11:29;;;;;;;2.75;1.10;;;;;;;;;;5074702;28;20031;-80
2023/12/31 12:13:55;;;;;;;2.22;1.10;;;;;;;;;;5070662;28;20111;-81
2023/12/31 12:16:20;;;;;;;2.88;1.20;;;;;;;;;;5052911;28;20033;-79
2023/12/31 12:18:46;;;;;;;3.05;1.42;;;;;;;;;;5056539;28;20383;-80
2023/12/31 12:21:12;;;;;;;1.70;0.93;;;;;;;;;;5055096;28;20479;-79
2023/12/31 12:23:38;;;;;;;1.70;1.20;;;;;;;;;;5060987;28;20078;-79
2023/12/31 12:26:04;;;;;;;4.15;1.55;;;;;;;;;;5061291;28;20012;-79
2023/12/31 12:28:34;;;;;;;1.63;1.00;;;;;;;;;;5085344;28;20493;-79
2023/12/31 12:31:00;;;;;;;2.67;1.17;;;;;;;;;;5061694;28;20395;-79
2023/12/31 12:33:27;;;;;;;3.53;1.20;;;;;;;;;;5062909;28;20028;-80
2023/12/31 12:35:53;;;;;;;1.23;1.10;;;;;;;;;;5060926;28;20052;-80
2023/12/31 12:38:19;;;;;;;1.95;1.25;;;;;;;;;;5060593;28;20418;-80
2023/12/31 12:40:45;;;;;;;1.83;1.45;;;;;;;;;;5065641;28;20032;-80
2023/12/31 12:43:14;;;;;;;4.03;1.67;;;;;;;;;;5065774;28;20036;-80
2023/12/31 12:45:40;;;;;;;1.30;1.10;;;;;;;;;;5077821;28;20025;-80
2023/12/31 12:48:06;;;;;;;3.20;1.30;;;;;;;;;;5069757;28;20027;-80
2023/12/31 12:50:32;;;;;;;1.42;1.10;;;;;;;;;;5055674;28;20039;-79
2023/12/31 12:52:58;;;;;;;2.13;1.35;;;;;;;;;;5072721;28;20479;-80
2023/12/31 12:55:24;;;;;;;4.07;1.55;;;;;;;;;;5051706;28;20028;-80
2023/12/31 12:57:50;;;;;;;1.83;1.08;;;;;;;;;;5064725;28;20710;-80
2023/12/31 13:00:17;;;;;;;1.25;0.90;;;;;;;;;;5052960;28;20025;-80
2023/12/31 13:02:43;;;;;;;1.52;1.15;;;;;;;;;;5062373;28;20441;-80
2023/12/31 13:05:09;;;;;;;5.32;1.20;;;;;;;;;;5052357;28;20033;-80
2023/12/31 13:07:35;;;;;;;2.25;1.08;;;;;;;;;;5056223;28;20029;-80
2023/12/31 13:10:01;;;;;;;2.17;1.30;;;;;;;;;;5066781;28;20449;-79
2023/12/31 13:12:28;;;;;;;1.85;1.20;;;;;;;;;;5075762;28;20022;-79
2023/12/31 13:14:54;;;;;;;2.60;1.42;;;;;;;;;;5054864;28;20120;-80
2023/12/31 13:17:22;;;;;;;3.65;1.25;;;;;;;;;;5050530;28;20029;-79
2023/12/31 13:19:51;;;;;;;3.33;1.33;;;;;;;;;;5076233;28;20028;-80
2023/12/31 13:22:17;;;;;;;2.47;1.23;;;;;;;;;;5066170;28;20057;-80
2023/12/31 13:24:43;;;;;;;3.92;1.20;;;;;;;;;;5051829;28;20037;-80
2023/12/31 13:27:12;;;;;;;4.20;1.45;;;;;;;;;;5077611;28;20047;-80
2023/12/31 13:29:38;;;;;;;6.50;1.85;;;;;;;;;;5069826;28;20074;-80
2023/12/31 13:32:06;;;;;;;2.28;1.27;;;;;;;;;;5061847;28;20024;-80
2023/12/31 13:34:32;;;;;;;2.35;1.20;;;;;;;;;;5057464;28;20063;-80
2023/12/31 13:36:58;;;;;;;1.48;1.08;;;;;;;;;;5045404;28;20734;-78
2023/12/31 13:39:24;;;;;;;2.15;1.42;;;;;;;;;;5055339;28;20031;-80
2023/12/31 13:41:49;;;;;;;1.50;1.17;;;;;;;;;;5058902;28;20047;-80
2023/12/31 13:44:15;;;;;;;3.08;1.20;;;;;;;;;;5049880;28;20033;-80
2023/12/31 13:46:41;;;;;;;2.90;1.50;;;;;;;;;;5057679;28;20043;-80
2023/12/31 13:49:07;;;;;;;1.45;1.08;;;;;;;;;;5054811;28;20082;-81
2023/12/31 13:51:33;;;;;;;4.88;0.98;;;;;;;;;;5062267;28;20028;-77
2023/12/31 13:53:59;;;;;;;1.98;1.40;;;;;;;;;;5057219;28;20024;-77
2023/12/31 13:56:31;;;;;;;3.28;1.77;;;;;;;;;;5061717;28;20024;-80
2023/12/31 13:58:57;;;;;;;6.40;1.92;;;;;;;;;;5055964;28;20029;-79
2023/12/31 14:01:23;;;;;;;2.33;1.38;;;;;;;;;;5065691;28;20044;-76
2023/12/31 14:03:49;;;;;;;9.38;1.80;;;;;;;;;;5063161;28;20483;-82
2023/12/31 14:06:16;;;;;;;3.15;1.80;;;;;;;;;;5064105;28;20052;-76
2023/12/31 14:08:43;;;;;;;3.38;1.33;;;;;;;;;;5055651;28;20509;-79
2023/12/31 14:11:09;;;;;;;2.40;1.67;;;;;;;;;;5053598;28;20124;-78
2023/12/31 14:13:34;;;;;;;1.92;1.25;;;;;;;;;;5073201;28;20212;-80
2023/12/31 14:16:00;;;;;;;4.07;1.80;;;;;;;;;;5041472;28;20037;-78
2023/12/31 14:18:26;;;;;;;2.53;1.17;;;;;;;;;;5055556;28;20037;-78
2023/12/31 14:20:54;;;;;;;1.58;1.10;;;;;;;;;;5052554;28;20057;-90
2023/12/31 14:23:20;;;;;;;1.27;1.17;;;;;;;;;;5051630;28;20479;-83
2023/12/31 14:25:46;;;;;;;3.38;1.70;;;;;;;;;;5059097;28;20070;-86
2023/12/31 14:28:12;;;;;;;1.92;1.25;;;;;;;;;;5059981;28;20025;-85
2023/12/31 14:30:42;;;;;;;1.88;1.30;;;;;;;;;;5057182;28;20056;-80
2023/12/31 14:33:10;;;;;;;2.83;1.70;;;;;;;;;;5053014;28;20017;-83
2023/12/31 14:35:35;;;;;;;3.83;1.98;;;;;;;;;;5072126;28;20287;-80
2023/12/31 14:38:01;;;;;;;2.63;1.70;;;;;;;;;;5068153;28;20440;-82